createdAt,value
2022-08-10T00:01:54.972Z,14.27
2022-08-10T00:04:27.057Z,14.21
2022-08-10T00:06:56.279Z,14.19
2022-08-10T00:09:26.189Z,14.19
2022-08-10T00:11:54.941Z,14.16
2022-08-10T00:14:23.675Z,14.13
2022-08-10T00:16:52.425Z,14.09
2022-08-10T00:19:21.217Z,14.06
2022-08-10T00:21:51.607Z,14.05
2022-08-10T00:24:20.523Z,14.01
2022-08-10T00:27:52.459Z,13.99
2022-08-10T00:29:38.312Z,13.96
2022-08-10T00:32:07.781Z,13.93
2022-08-10T00:34:36.551Z,13.90
2022-08-10T00:37:05.595Z,13.88
2022-08-10T00:39:36.306Z,13.85
2022-08-10T00:42:08.385Z,13.84
2022-08-10T00:44:39.937Z,13.85
2022-08-10T00:47:21.333Z,13.84
2022-08-10T00:49:59.279Z,13.82
2022-08-10T00:52:29.831Z,13.80
2022-08-10T00:54:58.835Z,13.77
2022-08-10T00:57:28.320Z,13.78
2022-08-10T00:59:58.468Z,13.78
2022-08-10T01:02:31.162Z,13.75
2022-08-10T01:05:02.902Z,13.73
2022-08-10T01:07:55.980Z,13.74
2022-08-10T01:10:38.389Z,13.73
2022-08-10T01:13:20.874Z,13.74
2022-08-10T01:15:56.635Z,13.73
2022-08-10T01:18:38.113Z,13.70
2022-08-10T01:21:36.758Z,13.67
2022-08-10T01:24:39.293Z,13.63
2022-08-10T01:27:27.279Z,13.62
2022-08-10T01:30:00.929Z,13.57
2022-08-10T01:32:47.547Z,13.52
2022-08-10T01:35:24.353Z,13.47
2022-08-10T01:38:05.989Z,13.42
2022-08-10T01:40:37.344Z,13.38
2022-08-10T01:43:10.484Z,13.34
2022-08-10T01:45:45.294Z,13.34
2022-08-10T01:48:31.406Z,13.32
2022-08-10T01:51:09.355Z,13.32
2022-08-10T01:53:43.016Z,13.31
2022-08-10T01:56:18.884Z,13.30
2022-08-10T01:58:52.181Z,13.26
2022-08-10T02:01:24.018Z,13.25
2022-08-10T02:04:03.479Z,13.25
2022-08-10T02:06:38.214Z,13.22
2022-08-10T02:09:11.110Z,13.20
2022-08-10T02:12:06.581Z,13.18
2022-08-10T02:14:34.137Z,13.18
2022-08-10T02:17:06.968Z,13.12
2022-08-10T02:19:38.387Z,13.12
2022-08-10T02:22:34.948Z,13.10
2022-08-10T02:25:00.175Z,13.06
2022-08-10T02:27:31.512Z,13.07
2022-08-10T02:30:01.798Z,13.04
2022-08-10T02:32:37.969Z,13.01
2022-08-10T02:35:13.281Z,12.98
2022-08-10T02:37:59.088Z,12.96
2022-08-10T02:45:14.107Z,12.95
2022-08-10T02:45:18.215Z,12.92
2022-08-10T02:46:20.967Z,12.86
2022-08-10T02:49:00.424Z,12.81
2022-08-10T02:52:06.890Z,12.78
2022-08-10T02:54:38.606Z,12.69
2022-08-10T02:57:19.307Z,12.65
2022-08-10T02:59:52.524Z,12.67
2022-08-10T03:02:29.657Z,12.67
2022-08-10T03:05:06.159Z,12.67
2022-08-10T03:07:45.115Z,12.64
2022-08-10T03:10:18.603Z,12.61
2022-08-10T03:12:51.680Z,12.59
2022-08-10T03:15:22.185Z,12.56
2022-08-10T03:17:58.207Z,12.55
2022-08-10T03:20:37.119Z,12.53
2022-08-10T03:23:11.065Z,12.54
2022-08-10T03:25:40.362Z,12.51
2022-08-10T03:28:10.402Z,12.50
2022-08-10T03:30:48.391Z,12.53
2022-08-10T03:33:19.632Z,12.55
2022-08-10T03:36:42.400Z,12.56
2022-08-10T03:38:39.885Z,12.52
2022-08-10T03:41:16.087Z,12.53
2022-08-10T03:43:48.550Z,12.54
2022-08-10T03:46:21.916Z,12.51
2022-08-10T03:48:54.171Z,12.47
2022-08-10T03:51:25.214Z,12.45
2022-08-10T03:54:03.353Z,12.44
2022-08-10T03:56:37.405Z,12.39
2022-08-10T03:59:09.380Z,12.36
2022-08-10T04:02:52.878Z,12.36
2022-08-10T04:04:27.588Z,12.37
2022-08-10T04:06:58.556Z,12.36
2022-08-10T04:09:55.496Z,12.38
2022-08-10T04:12:18.668Z,12.43
2022-08-10T04:14:51.498Z,12.44
2022-08-10T04:18:01.451Z,12.47
2022-08-10T04:20:19.120Z,12.50
2022-08-10T04:22:51.493Z,12.54
2022-08-10T04:25:20.855Z,12.57
2022-08-10T04:27:54.522Z,12.59
2022-08-10T04:30:23.756Z,12.60
2022-08-10T04:32:59.429Z,12.62
2022-08-10T04:35:29.661Z,12.65
2022-08-10T04:38:01.398Z,12.68
2022-08-10T04:40:31.351Z,12.75
2022-08-10T04:43:11.676Z,12.84
2022-08-10T04:45:49.512Z,12.93
2022-08-10T04:48:42.550Z,13.03
2022-08-10T04:51:18.981Z,13.14
2022-08-10T04:54:03.792Z,13.25
2022-08-10T04:56:36.878Z,13.37
2022-08-10T04:59:04.955Z,13.48
2022-08-10T05:02:21.821Z,13.58
2022-08-10T05:04:36.587Z,13.71
2022-08-10T05:07:10.675Z,13.86
2022-08-10T05:10:04.002Z,13.99
2022-08-10T05:12:29.149Z,14.16
2022-08-10T05:14:58.143Z,14.30
2022-08-10T05:17:26.892Z,14.45
2022-08-10T05:20:02.019Z,14.60
2022-08-10T05:22:36.548Z,14.75
2022-08-10T05:25:08.035Z,14.88
2022-08-10T05:27:37.737Z,15.01
2022-08-10T05:30:09.799Z,15.16
2022-08-10T05:32:57.958Z,15.30
2022-08-10T05:36:17.788Z,15.54
2022-08-10T05:39:43.121Z,15.71
2022-08-10T06:00:37.437Z,17.08
2022-08-10T06:10:03.829Z,17.57
2022-08-10T06:12:54.355Z,17.80
2022-08-10T06:16:20.332Z,18.04
2022-08-10T06:18:50.109Z,18.20
2022-08-10T06:21:20.872Z,18.35
2022-08-10T06:23:52.039Z,18.49
2022-08-10T06:26:21.790Z,18.63
2022-08-10T06:29:03.595Z,18.73
2022-08-10T06:31:49.065Z,18.87
2022-08-10T06:34:25.838Z,19.02
2022-08-10T06:36:57.996Z,19.13
2022-08-10T06:39:34.020Z,19.28
2022-08-10T06:42:17.918Z,19.41
2022-08-10T06:44:56.642Z,19.56
2022-08-10T06:47:32.419Z,19.70
2022-08-10T06:50:08.862Z,19.82
2022-08-10T06:52:42.096Z,19.93
2022-08-10T06:55:16.925Z,20.05
2022-08-10T06:58:00.167Z,20.18
2022-08-10T07:00:34.392Z,20.30
2022-08-10T07:03:09.535Z,20.40
2022-08-10T07:05:43.003Z,20.47
2022-08-10T07:08:14.511Z,20.60
2022-08-10T07:10:46.364Z,20.73
2022-08-10T07:14:16.366Z,20.87
2022-08-10T07:16:33.487Z,21.00
2022-08-10T07:19:03.135Z,21.10
2022-08-10T07:21:33.546Z,21.20
2022-08-10T07:25:09.756Z,21.29
2022-08-10T07:27:58.534Z,21.42
2022-08-10T07:30:32.928Z,21.54
2022-08-10T07:33:21.362Z,21.66
2022-08-10T07:36:54.594Z,21.81
2022-08-10T07:40:02.088Z,21.91
2022-08-10T07:42:16.403Z,21.91
2022-08-10T07:44:47.966Z,21.98
2022-08-10T07:47:52.522Z,22.06
2022-08-10T07:50:13.872Z,22.16
2022-08-10T07:52:44.606Z,22.21
2022-08-10T07:55:18.102Z,22.30
2022-08-10T07:57:50.927Z,22.41
2022-08-10T08:00:21.233Z,22.53
2022-08-10T08:02:53.582Z,22.63
2022-08-10T08:05:57.619Z,22.71
2022-08-10T08:08:15.504Z,22.76
2022-08-10T08:10:47.732Z,22.85
2022-08-10T08:13:20.425Z,22.93
2022-08-10T08:16:18.096Z,22.94
2022-08-10T08:18:42.010Z,22.99
2022-08-10T08:24:09.603Z,23.09
2022-08-10T08:24:30.915Z,23.19
2022-08-10T08:27:03.706Z,23.30
2022-08-10T08:29:36.023Z,23.39
2022-08-10T08:32:06.370Z,23.38
2022-08-10T08:34:38.633Z,23.29
2022-08-10T08:37:10.168Z,23.32
2022-08-10T08:39:40.493Z,23.47
2022-08-10T08:42:26.876Z,23.65
2022-08-10T08:45:27.453Z,23.78
2022-08-10T08:48:21.475Z,23.89
2022-08-10T08:51:08.629Z,23.93
2022-08-10T08:54:07.047Z,23.96
2022-08-10T08:56:49.579Z,24.09
2022-08-10T08:59:37.499Z,24.13
2022-08-10T09:02:29.372Z,24.27
2022-08-10T09:05:08.758Z,24.36
2022-08-10T09:08:00.700Z,24.51
2022-08-10T09:10:43.327Z,24.63
2022-08-10T09:13:18.626Z,24.58
2022-08-10T09:16:16.073Z,24.50
2022-08-10T09:18:53.102Z,24.45
2022-08-10T09:21:34.270Z,24.43
2022-08-10T09:24:20.499Z,24.30
2022-08-10T09:26:51.607Z,24.34
2022-08-10T09:29:26.423Z,24.39
2022-08-10T09:42:15.008Z,24.16
2022-08-10T09:50:07.028Z,24.16
2022-08-10T10:03:04.016Z,24.11
2022-08-10T10:06:02.689Z,24.30
2022-08-10T10:18:14.961Z,24.47
2022-08-10T10:25:20.614Z,24.76
2022-08-10T10:38:04.669Z,24.59
2022-08-10T10:42:04.004Z,24.49
2022-08-10T10:45:23.423Z,24.39
2022-08-10T10:48:38.977Z,24.54
2022-08-10T10:51:18.759Z,24.59
2022-08-10T10:53:59.543Z,24.67
2022-08-10T10:56:39.667Z,24.74
2022-08-10T10:59:53.834Z,24.80
2022-08-10T11:02:35.982Z,24.89
2022-08-10T11:05:21.320Z,24.95
2022-08-10T11:07:57.057Z,24.99
2022-08-10T11:10:34.678Z,25.02
2022-08-10T11:14:27.565Z,25.02
2022-08-10T11:16:24.745Z,25.05
2022-08-10T11:19:07.580Z,25.07
2022-08-10T11:21:49.428Z,25.14
2022-08-10T11:24:47.147Z,25.22
2022-08-10T11:27:23.234Z,25.20
2022-08-10T11:30:05.205Z,25.11
2022-08-10T11:32:42.863Z,25.07
2022-08-10T11:35:34.811Z,25.04
2022-08-10T11:38:31.230Z,25.05
2022-08-10T11:42:05.229Z,25.03
2022-08-10T11:44:08.238Z,25.02
2022-08-10T11:46:44.819Z,25.04
2022-08-10T11:49:21.956Z,25.07
2022-08-10T11:51:56.782Z,25.13
2022-08-10T11:54:31.853Z,25.19
2022-08-10T11:57:02.772Z,25.25
2022-08-10T11:59:57.959Z,25.22
2022-08-10T12:02:33.327Z,25.21
2022-08-10T12:05:10.609Z,25.23
2022-08-10T12:08:55.032Z,25.19
2022-08-10T12:10:40.192Z,25.13
2022-08-10T12:13:14.980Z,25.19
2022-08-10T12:15:56.834Z,25.26
2022-08-10T12:18:32.692Z,25.34
2022-08-10T12:21:09.599Z,25.41
2022-08-10T12:24:03.117Z,25.41
2022-08-10T12:26:39.591Z,25.32
2022-08-10T12:29:14.566Z,25.23
2022-08-10T12:31:50.802Z,25.15
2022-08-10T12:34:29.188Z,25.06
2022-08-10T12:37:07.526Z,25.04
2022-08-10T12:39:50.345Z,25.10
2022-08-10T12:42:38.873Z,25.20
2022-08-10T12:45:21.086Z,25.30
2022-08-10T12:47:56.570Z,25.38
2022-08-10T13:00:01.649Z,25.42
2022-08-10T13:08:28.803Z,25.42
2022-08-10T13:20:45.154Z,25.86
2022-08-10T13:28:36.157Z,25.73
2022-08-10T13:33:06.705Z,25.57
2022-08-10T13:39:58.226Z,25.56
2022-08-10T13:42:33.909Z,25.60
2022-08-10T13:45:08.365Z,25.54
2022-08-10T13:47:48.971Z,25.43
2022-08-10T13:50:34.574Z,25.31
2022-08-10T13:53:13.990Z,25.21
2022-08-10T13:55:55.170Z,25.13
2022-08-10T13:58:31.100Z,25.12
2022-08-10T14:05:51.098Z,25.41
2022-08-10T14:08:23.007Z,25.51
2022-08-10T14:11:43.587Z,25.62
2022-08-10T14:28:02.237Z,25.47
2022-08-10T14:30:30.989Z,25.51
2022-08-10T14:33:03.687Z,25.63
2022-08-10T14:36:22.521Z,25.68
2022-08-10T14:38:31.786Z,25.76
2022-08-10T14:41:03.813Z,25.83
2022-08-10T14:43:40.415Z,25.86
2022-08-10T14:46:17.718Z,25.89
2022-08-10T14:48:53.583Z,25.90
2022-08-10T14:51:44.064Z,25.86
2022-08-10T14:54:17.629Z,25.81
2022-08-10T14:56:48.821Z,25.81
2022-08-10T14:59:18.909Z,25.81
2022-08-10T15:02:00.992Z,25.77
2022-08-10T15:04:46.491Z,25.79
2022-08-10T15:07:21.534Z,25.79
2022-08-10T15:10:00.335Z,25.78
2022-08-10T15:12:34.194Z,25.73
2022-08-10T15:15:07.416Z,25.71
2022-08-10T15:17:41.426Z,25.69
2022-08-10T15:20:20.676Z,25.61
2022-08-10T15:22:55.773Z,25.45
2022-08-10T15:25:28.089Z,25.27
2022-08-10T15:28:06.064Z,25.15
2022-08-10T15:30:41.947Z,25.01
2022-08-10T15:34:03.613Z,24.90
2022-08-10T15:36:41.702Z,24.81
2022-08-10T15:40:26.000Z,24.76
2022-08-10T15:42:08.972Z,24.75
2022-08-10T15:44:41.727Z,24.75
2022-08-10T15:47:15.521Z,24.74
2022-08-10T15:49:50.037Z,24.71
2022-08-10T15:52:39.743Z,24.67
2022-08-10T15:55:43.803Z,24.66
2022-08-10T15:58:12.799Z,24.66
2022-08-10T16:00:49.298Z,24.66
2022-08-10T16:03:26.383Z,24.63
2022-08-10T16:10:54.295Z,24.58
2022-08-10T16:18:44.712Z,24.38
2022-08-10T16:29:55.967Z,24.09
2022-08-10T16:33:54.086Z,24.03
2022-08-10T16:45:14.801Z,23.83
2022-08-10T16:52:39.623Z,23.71
2022-08-10T17:08:47.982Z,23.48
2022-08-10T17:20:56.569Z,23.29
2022-08-10T17:28:21.212Z,23.03
2022-08-10T17:31:58.861Z,22.96
2022-08-10T17:35:47.016Z,22.89
2022-08-10T17:47:15.480Z,22.65
2022-08-10T17:54:44.049Z,22.20
2022-08-10T18:11:08.596Z,21.17
2022-08-10T18:37:08.007Z,19.73
2022-08-10T19:52:20.228Z,16.66
2022-08-10T19:55:35.050Z,16.59
2022-08-10T20:25:31.187Z,15.86
2022-08-10T20:46:50.751Z,15.47
2022-08-10T21:04:13.291Z,15.20
2022-08-10T21:11:49.944Z,15.10
2022-08-10T21:37:07.865Z,14.60
2022-08-10T22:02:52.831Z,14.42
2022-08-10T22:11:37.401Z,14.27
2022-08-10T22:50:47.413Z,13.77
2022-08-10T22:54:30.950Z,13.77
2022-08-10T23:14:59.260Z,13.68
2022-08-10T23:22:56.170Z,13.60
2022-08-10T23:27:37.639Z,13.56
2022-08-10T23:32:06.773Z,13.50
2022-08-10T23:36:33.764Z,13.44
